Time;durP1;ratioP1;P1;durP2;ratioP2;P2;SDS_P1;SDS_P2;PMS_P1;PMS_P2;Temp;Humidity;BMP_temperature;BMP_pressure;BME280_temperature;BME280_humidity;BME280_pressure;Samples;Min_cycle;Max_cycle;Signal;HPM_P1;HPM_P2
2023/06/26 00:01:31;;;;;;;86.47;83.20;;;21.80;99.90;;;;;;4929594;28;20190;-85
2023/06/26 00:03:58;;;;;;;85.60;82.33;;;21.80;99.90;;;;;;4929516;29;20241;-84
2023/06/26 00:06:25;;;;;;;94.00;90.30;;;21.70;99.90;;;;;;4929499;29;20320;-84
2023/06/26 00:08:55;;;;;;;87.57;83.90;;;21.70;99.90;;;;;;4929189;29;20226;-84
2023/06/26 00:11:22;;;;;;;87.50;84.03;;;21.70;99.90;;;;;;4930495;28;20308;-85
2023/06/26 00:13:48;;;;;;;97.13;93.57;;;21.70;99.90;;;;;;4913404;29;20218;-84
2023/06/26 00:16:13;;;;;;;96.00;92.23;;;21.70;99.90;;;;;;4945541;29;20651;-85
2023/06/26 00:18:39;;;;;;;98.77;95.10;;;21.60;99.90;;;;;;4929190;29;20731;-84
2023/06/26 00:21:05;;;;;;;94.77;91.07;;;21.60;99.90;;;;;;4930134;28;20783;-84
2023/06/26 00:23:32;;;;;;;95.63;92.13;;;21.60;99.90;;;;;;4929304;29;20305;-85
2023/06/26 00:25:58;;;;;;;91.47;87.87;;;21.60;99.90;;;;;;4897499;29;20230;-84
2023/06/26 00:28:24;;;;;;;97.50;93.63;;;21.60;99.90;;;;;;4913257;28;20190;-84
2023/06/26 00:30:50;;;;;;;95.33;91.57;;;21.60;99.90;;;;;;4929236;29;20218;-84
2023/06/26 00:33:16;;;;;;;92.83;89.00;;;21.60;99.90;;;;;;4928593;28;20225;-85
2023/06/26 00:35:42;;;;;;;95.70;92.13;;;21.50;99.90;;;;;;4928841;29;20234;-84
2023/06/26 00:38:07;;;;;;;98.13;94.53;;;21.40;99.90;;;;;;4928805;29;20217;-85
2023/06/26 00:40:33;;;;;;;97.60;93.77;;;21.40;99.90;;;;;;4928623;28;20233;-85
2023/06/26 00:42:59;;;;;;;94.77;90.77;;;21.40;99.90;;;;;;4929152;29;20655;-85
2023/06/26 00:45:25;;;;;;;99.40;95.57;;;21.30;99.90;;;;;;4944293;28;20608;-84
2023/06/26 00:47:50;;;;;;;99.50;95.73;;;21.30;99.90;;;;;;4928586;29;20234;-85
2023/06/26 00:50:17;;;;;;;102.67;98.77;;;21.20;99.90;;;;;;4912882;29;20249;-85
2023/06/26 00:52:43;;;;;;;101.07;96.83;;;21.20;99.90;;;;;;4929830;28;20245;-85
2023/06/26 00:55:09;;;;;;;107.87;103.87;;;21.10;99.90;;;;;;4913513;29;20640;-85
2023/06/26 00:57:35;;;;;;;98.83;95.10;;;21.10;99.90;;;;;;4912762;29;20225;-84
2023/06/26 01:00:03;;;;;;;104.43;100.53;;;21.10;99.90;;;;;;4928049;29;20671;-85
2023/06/26 01:02:33;;;;;;;97.80;93.83;;;21.20;99.90;;;;;;4929243;29;20226;-84
2023/06/26 01:05:03;;;;;;;105.43;101.40;;;21.10;99.90;;;;;;4928083;29;20226;-84
2023/06/26 01:07:29;;;;;;;98.07;94.33;;;21.10;99.90;;;;;;4944792;28;20201;-85
2023/06/26 01:09:55;;;;;;;97.70;93.93;;;21.10;99.90;;;;;;4913361;29;20261;-84
2023/06/26 01:12:21;;;;;;;109.07;105.10;;;21.00;99.90;;;;;;4928326;29;20242;-84
2023/06/26 01:14:47;;;;;;;107.20;103.17;;;21.10;99.90;;;;;;4928389;29;20284;-84
2023/06/26 01:17:14;;;;;;;102.90;98.93;;;21.10;99.90;;;;;;4928339;29;20675;-85
2023/06/26 01:19:41;;;;;;;102.27;98.23;;;21.10;99.90;;;;;;4897176;28;20214;-84
2023/06/26 01:22:16;;;;;;;104.97;100.90;;;21.10;99.90;;;;;;4928929;29;20715;-84
2023/06/26 01:24:57;;;;;;;100.27;96.33;;;21.20;99.90;;;;;;4928597;29;20237;-84
2023/06/26 01:27:25;;;;;;;100.80;96.80;;;21.30;99.90;;;;;;4928596;29;20237;-84
2023/06/26 01:29:52;;;;;;;102.20;98.17;;;21.30;99.90;;;;;;4929553;28;20218;-85
2023/06/26 01:32:19;;;;;;;101.73;97.77;;;21.30;99.90;;;;;;4896812;29;20313;-85
2023/06/26 01:34:47;;;;;;;96.40;92.70;;;21.40;99.90;;;;;;4928079;29;20230;-85
2023/06/26 01:37:13;;;;;;;105.90;102.00;;;21.30;99.90;;;;;;4928956;29;20193;-83
2023/06/26 01:39:39;;;;;;;105.47;101.50;;;21.30;99.90;;;;;;4896853;29;20218;-85
2023/06/26 01:42:05;;;;;;;108.37;104.33;;;21.30;99.90;;;;;;4912563;29;20770;-84
2023/06/26 01:44:36;;;;;;;107.67;103.70;;;21.30;99.90;;;;;;4930426;29;20217;-85
2023/06/26 01:47:04;;;;;;;94.03;90.43;;;21.30;99.90;;;;;;4947368;28;20229;-85
2023/06/26 01:49:48;;;;;;;105.03;101.13;;;21.40;99.90;;;;;;4915943;28;20799;-85
2023/06/26 01:52:25;;;;;;;98.10;94.23;;;21.50;99.90;;;;;;4932453;29;20265;-85
2023/06/26 01:55:07;;;;;;;97.27;93.70;;;21.60;99.90;;;;;;4933009;29;20209;-83
2023/06/26 01:57:35;;;;;;;93.80;90.17;;;21.80;99.90;;;;;;4947542;28;20882;-84
2023/06/26 02:00:02;;;;;;;108.80;104.77;;;21.80;99.90;;;;;;4932359;28;20226;-85
2023/06/26 02:02:29;;;;;;;106.27;102.20;;;21.90;99.90;;;;;;4932653;28;20230;-84
2023/06/26 02:04:55;;;;;;;105.03;101.03;;;21.90;99.90;;;;;;4899645;29;20234;-84
2023/06/26 02:07:21;;;;;;;99.27;95.23;;;21.90;99.90;;;;;;4931224;28;20757;-84
2023/06/26 02:09:46;;;;;;;109.23;105.03;;;21.90;99.90;;;;;;4931504;29;20210;-85
2023/06/26 02:12:12;;;;;;;100.97;97.03;;;21.90;99.90;;;;;;4915509;29;20324;-84
2023/06/26 02:14:38;;;;;;;110.67;106.63;;;21.90;99.90;;;;;;4931287;29;20687;-84
2023/06/26 02:17:04;;;;;;;104.63;100.80;;;21.90;99.90;;;;;;4899425;29;20214;-85
2023/06/26 02:19:30;;;;;;;105.27;101.30;;;21.90;99.90;;;;;;4931277;28;20690;-84
2023/06/26 02:21:56;;;;;;;99.17;95.23;;;21.90;99.90;;;;;;4900028;29;20194;-84
2023/06/26 02:24:21;;;;;;;105.13;100.97;;;21.80;99.90;;;;;;4932444;28;20698;-85
2023/06/26 02:26:49;;;;;;;106.67;102.40;;;21.80;99.90;;;;;;4930719;29;20245;-85
2023/06/26 02:29:14;;;;;;;101.03;96.93;;;21.70;99.90;;;;;;4899657;29;20264;-85
2023/06/26 02:31:40;;;;;;;107.10;102.73;;;21.70;99.90;;;;;;4930829;28;20706;-84
2023/06/26 02:34:06;;;;;;;110.87;106.53;;;21.70;99.90;;;;;;4931536;29;20551;-85
2023/06/26 02:36:32;;;;;;;106.87;102.47;;;21.70;99.90;;;;;;4915079;29;20218;-85
2023/06/26 02:38:58;;;;;;;103.60;99.83;;;21.70;99.90;;;;;;4899247;29;20233;-85
2023/06/26 02:41:24;;;;;;;101.90;97.80;;;21.60;99.90;;;;;;4914840;29;20259;-85
2023/06/26 02:43:49;;;;;;;102.70;98.70;;;21.60;99.90;;;;;;4914646;29;20301;-84
2023/06/26 02:46:15;;;;;;;99.70;95.77;;;21.60;99.90;;;;;;4915511;29;20190;-84
2023/06/26 02:48:41;;;;;;;105.13;101.00;;;21.60;99.90;;;;;;4930701;29;20273;-85
2023/06/26 02:51:07;;;;;;;97.13;93.43;;;21.50;99.90;;;;;;4931428;28;20237;-84
2023/06/26 02:53:33;;;;;;;104.60;100.77;;;21.50;99.90;;;;;;4898757;29;20747;-85
2023/06/26 02:55:59;;;;;;;103.57;99.80;;;21.50;99.90;;;;;;4897347;29;20222;-84
2023/06/26 02:58:25;;;;;;;106.27;102.10;;;21.40;99.90;;;;;;4930114;28;20197;-84
2023/06/26 03:00:51;;;;;;;106.83;102.60;;;21.40;99.90;;;;;;4914934;29;20749;-85
2023/06/26 03:03:17;;;;;;;100.17;96.30;;;21.40;99.90;;;;;;4914025;29;20654;-85
2023/06/26 03:05:43;;;;;;;110.50;106.47;;;21.40;99.90;;;;;;4930119;29;20226;-85
2023/06/26 03:08:09;;;;;;;118.50;114.33;;;21.40;99.90;;;;;;4931153;28;20229;-84
2023/06/26 03:10:35;;;;;;;112.27;108.20;;;21.30;99.90;;;;;;4929888;28;20277;-84
2023/06/26 03:13:00;;;;;;;110.27;105.87;;;21.30;99.90;;;;;;4898984;29;20652;-84
2023/06/26 03:15:26;;;;;;;105.03;100.67;;;21.30;99.90;;;;;;4914010;29;20218;-84
2023/06/26 03:17:52;;;;;;;115.80;111.77;;;21.30;99.90;;;;;;4898132;29;20226;-85
2023/06/26 03:20:17;;;;;;;117.90;113.60;;;21.30;99.90;;;;;;4930960;28;20218;-84
2023/06/26 03:22:43;;;;;;;114.87;110.20;;;21.30;99.90;;;;;;4929689;29;20229;-83
2023/06/26 03:25:09;;;;;;;115.47;111.13;;;21.30;99.90;;;;;;4914236;29;20186;-84
2023/06/26 03:27:35;;;;;;;110.50;106.43;;;21.20;99.90;;;;;;4930031;29;20224;-84
2023/06/26 03:30:00;;;;;;;114.70;110.70;;;21.20;99.90;;;;;;4913601;29;20234;-84
2023/06/26 03:32:26;;;;;;;109.17;104.83;;;21.20;99.90;;;;;;4913823;29;20230;-84
2023/06/26 03:34:52;;;;;;;120.33;115.90;;;21.10;99.90;;;;;;4929780;29;20225;-85
2023/06/26 03:37:18;;;;;;;110.03;105.93;;;21.10;99.90;;;;;;4930006;29;20182;-85
2023/06/26 03:39:44;;;;;;;103.90;99.70;;;21.10;99.90;;;;;;4914063;29;20213;-84
2023/06/26 03:42:10;;;;;;;117.63;113.00;;;21.10;99.90;;;;;;4929315;29;20582;-84
2023/06/26 03:44:36;;;;;;;113.67;109.47;;;21.10;99.90;;;;;;4930534;28;20240;-84
2023/06/26 03:47:02;;;;;;;105.50;101.73;;;21.10;99.90;;;;;;4913360;29;20233;-84
2023/06/26 03:49:27;;;;;;;118.90;114.77;;;21.00;99.90;;;;;;4929361;28;20217;-84
2023/06/26 03:51:53;;;;;;;112.43;108.43;;;20.90;99.90;;;;;;4914031;29;20214;-83
2023/06/26 03:54:19;;;;;;;139.93;134.90;;;20.80;99.90;;;;;;4929120;29;20684;-84
2023/06/26 03:56:45;;;;;;;182.70;176.60;;;20.70;99.90;;;;;;4929320;29;20226;-83
2023/06/26 03:59:11;;;;;;;115.93;111.67;;;20.60;99.90;;;;;;4928947;28;20228;-85
2023/06/26 04:01:37;;;;;;;163.50;157.67;;;20.50;99.90;;;;;;4928938;28;20688;-85
2023/06/26 04:04:03;;;;;;;153.67;148.80;;;20.30;99.90;;;;;;4913765;29;20245;-83
2023/06/26 04:06:31;;;;;;;232.50;224.27;;;20.00;99.90;;;;;;4928779;29;20701;-84
2023/06/26 04:08:57;;;;;;;100.03;95.97;;;19.80;99.90;;;;;;4928677;29;20327;-85
2023/06/26 04:11:24;;;;;;;113.83;109.23;;;19.70;99.90;;;;;;4913264;29;20241;-84
2023/06/26 04:13:49;;;;;;;130.10;125.30;;;19.60;99.90;;;;;;4929191;29;20238;-85
2023/06/26 04:16:15;;;;;;;178.00;171.63;;;19.60;99.90;;;;;;4897645;29;20189;-84
2023/06/26 04:18:41;;;;;;;142.63;137.77;;;19.50;99.90;;;;;;4913381;29;20222;-85
2023/06/26 04:21:12;;;;;;;170.83;164.47;;;19.40;99.90;;;;;;4912805;29;20229;-83
2023/06/26 04:23:39;;;;;;;148.03;143.10;;;19.40;99.90;;;;;;4928712;29;20229;-85
2023/06/26 04:26:06;;;;;;;118.10;114.33;;;19.40;99.90;;;;;;4929691;28;20407;-84
2023/06/26 04:28:33;;;;;;;163.03;157.80;;;19.30;99.90;;;;;;4929914;28;20236;-84
2023/06/26 04:30:59;;;;;;;121.07;116.80;;;19.30;99.90;;;;;;4930421;28;20210;-85
2023/06/26 04:33:26;;;;;;;204.47;198.27;;;19.30;99.90;;;;;;4928510;29;20707;-84
2023/06/26 04:35:52;;;;;;;121.97;117.87;;;19.30;99.90;;;;;;4929753;28;20232;-83
2023/06/26 04:38:19;;;;;;;131.23;126.93;;;19.30;99.90;;;;;;4928386;29;20318;-84
2023/06/26 04:40:44;;;;;;;267.77;258.87;;;19.30;99.90;;;;;;4928236;29;20718;-84
2023/06/26 04:43:10;;;;;;;136.40;132.03;;;19.20;99.90;;;;;;4913433;29;20182;-84
2023/06/26 04:45:37;;;;;;;141.77;136.80;;;19.30;99.90;;;;;;4929506;28;20652;-84
2023/06/26 04:48:03;;;;;;;170.80;165.37;;;19.20;99.90;;;;;;4928373;29;20313;-84
2023/06/26 04:50:30;;;;;;;282.50;273.07;;;19.20;99.90;;;;;;4928473;29;20637;-85
2023/06/26 04:52:56;;;;;;;153.57;148.50;;;19.20;99.90;;;;;;4928407;29;20232;-84
2023/06/26 04:55:24;;;;;;;198.30;191.87;;;19.20;99.90;;;;;;4928427;28;20177;-83
2023/06/26 04:57:50;;;;;;;150.60;145.07;;;19.10;99.90;;;;;;4930402;28;20206;-85
2023/06/26 05:00:16;;;;;;;148.23;143.33;;;19.10;99.90;;;;;;4928309;28;20226;-85
2023/06/26 05:02:42;;;;;;;182.63;176.77;;;19.10;99.90;;;;;;4912457;29;20504;-85
2023/06/26 05:05:08;;;;;;;159.60;154.27;;;19.00;99.90;;;;;;4897074;29;20318;-88
2023/06/26 05:07:34;;;;;;;130.40;126.23;;;19.00;99.90;;;;;;4928729;28;20195;-83
2023/06/26 05:10:00;;;;;;;275.70;266.07;;;19.00;99.90;;;;;;4944809;29;20185;-85
2023/06/26 05:12:25;;;;;;;164.83;159.23;;;18.90;99.90;;;;;;4928191;29;20234;-84
2023/06/26 05:14:51;;;;;;;133.57;129.03;;;18.90;99.90;;;;;;4912754;29;20234;-84
2023/06/26 05:17:17;;;;;;;142.80;138.17;;;18.90;99.90;;;;;;4929509;28;20230;-84
2023/06/26 05:19:43;;;;;;;171.03;165.23;;;19.00;99.90;;;;;;4931111;28;20225;-83
2023/06/26 05:22:09;;;;;;;200.33;193.87;;;19.00;99.90;;;;;;4916505;29;20644;-83
2023/06/26 05:24:39;;;;;;;135.03;130.23;;;19.20;99.90;;;;;;4900637;29;20746;-82
2023/06/26 05:27:05;;;;;;;154.77;149.97;;;19.60;99.90;;;;;;4931873;29;20758;-83
2023/06/26 05:29:32;;;;;;;132.83;128.37;;;19.80;99.90;;;;;;4916485;29;20273;-84
2023/06/26 05:31:58;;;;;;;164.33;159.40;;;20.30;99.90;;;;;;4931477;29;20241;-84
2023/06/26 05:34:28;;;;;;;133.87;129.60;;;20.50;99.90;;;;;;4931981;28;20269;-84
2023/06/26 05:36:57;;;;;;;107.60;104.07;;;21.10;99.90;;;;;;4933785;28;20182;-85
2023/06/26 05:39:24;;;;;;;100.47;97.07;;;21.20;99.90;;;;;;4932785;28;20672;-84
2023/06/26 05:41:51;;;;;;;119.17;115.37;;;21.80;99.90;;;;;;4932516;28;20237;-83
2023/06/26 05:44:17;;;;;;;114.13;110.47;;;22.40;99.90;;;;;;4931355;29;20308;-84
2023/06/26 05:46:43;;;;;;;116.00;111.97;;;22.90;99.90;;;;;;4915585;28;20222;-84
2023/06/26 05:49:09;;;;;;;88.65;85.57;;;23.10;99.90;;;;;;4932198;29;20186;-83
2023/06/26 05:51:35;;;;;;;171.55;165.88;;;23.00;99.90;;;;;;4915569;29;20241;-83
2023/06/26 05:54:01;;;;;;;67.03;64.80;;;23.10;99.90;;;;;;4930989;29;20766;-83
2023/06/26 05:56:28;;;;;;;86.68;83.80;;;23.20;99.90;;;;;;4931460;29;20226;-84
2023/06/26 05:58:55;;;;;;;60.70;58.70;;;23.50;99.90;;;;;;4931324;29;20226;-84
2023/06/26 06:01:21;;;;;;;66.65;64.40;;;24.00;99.90;;;;;;4931576;28;20189;-84
2023/06/26 06:03:46;;;;;;;55.22;53.33;;;23.90;99.90;;;;;;4931654;29;20249;-84
2023/06/26 06:06:12;;;;;;;62.47;60.30;;;24.10;99.90;;;;;;4931412;29;20229;-82
2023/06/26 06:08:38;;;;;;;109.32;105.68;;;24.00;99.90;;;;;;4931225;29;20680;-83
2023/06/26 06:11:04;;;;;;;58.20;55.97;;;23.80;99.90;;;;;;4931359;29;20314;-83
2023/06/26 06:13:30;;;;;;;64.80;62.33;;;24.60;99.90;;;;;;4931241;28;20224;-83
2023/06/26 06:15:56;;;;;;;50.17;48.33;;;24.00;99.90;;;;;;4916160;29;20601;-84
2023/06/26 06:18:22;;;;;;;59.80;57.65;;;23.50;99.90;;;;;;4915130;29;20257;-83
2023/06/26 06:20:48;;;;;;;54.80;52.90;;;23.70;99.90;;;;;;4932518;28;20601;-83
2023/06/26 06:23:13;;;;;;;64.95;62.83;;;23.80;99.90;;;;;;4930596;29;20210;-82
2023/06/26 06:25:39;;;;;;;50.78;48.78;;;23.40;99.90;;;;;;4930939;28;20237;-82
2023/06/26 06:28:05;;;;;;;55.28;53.38;;;23.40;99.90;;;;;;4915522;29;20236;-82
2023/06/26 06:30:31;;;;;;;51.95;49.95;;;24.20;99.90;;;;;;4930970;29;20268;-82
2023/06/26 06:32:58;;;;;;;139.73;134.98;;;24.50;99.90;;;;;;4930727;29;20245;-82
2023/06/26 06:35:23;;;;;;;43.25;41.85;;;23.80;99.90;;;;;;4932176;28;20241;-82
2023/06/26 06:37:49;;;;;;;49.90;47.97;;;23.80;99.90;;;;;;4930913;29;20229;-81
2023/06/26 06:40:16;;;;;;;47.70;46.00;;;23.80;99.90;;;;;;4932179;28;20174;-82
2023/06/26 06:42:41;;;;;;;86.35;83.25;;;23.80;99.90;;;;;;4930775;29;20226;-81
2023/06/26 06:45:07;;;;;;;43.67;42.10;;;24.00;99.90;;;;;;4899288;29;20230;-81
2023/06/26 06:47:34;;;;;;;39.25;37.58;;;23.80;99.90;;;;;;4914807;29;20224;-82
2023/06/26 06:50:07;;;;;;;51.03;49.33;;;24.40;99.90;;;;;;4931301;28;20210;-81
2023/06/26 06:52:38;;;;;;;45.63;43.90;;;23.90;99.90;;;;;;4930071;28;20210;-82
2023/06/26 06:55:08;;;;;;;73.20;70.70;;;23.70;99.90;;;;;;4930657;29;20662;-80
2023/06/26 06:57:37;;;;;;;98.00;94.95;;;23.50;99.90;;;;;;4930387;29;20585;-82
2023/06/26 07:00:05;;;;;;;57.75;55.30;;;22.70;99.90;;;;;;4930096;29;20304;-82
2023/06/26 07:02:30;;;;;;;48.60;46.70;;;23.00;99.90;;;;;;4930407;29;20277;-81
2023/06/26 07:04:56;;;;;;;51.25;49.53;;;23.30;99.90;;;;;;4930166;29;20234;-81
2023/06/26 07:07:22;;;;;;;48.10;46.13;;;23.50;99.90;;;;;;4930026;28;20202;-83
2023/06/26 07:09:48;;;;;;;49.72;47.67;;;23.20;99.90;;;;;;4931088;29;20192;-81
2023/06/26 07:12:13;;;;;;;45.72;44.08;;;23.40;99.90;;;;;;4929949;29;20772;-81
2023/06/26 07:14:39;;;;;;;56.92;54.80;;;23.50;99.90;;;;;;4931434;28;20222;-82
2023/06/26 07:17:05;;;;;;;66.95;64.15;;;23.10;99.90;;;;;;4929833;29;20269;-81
2023/06/26 07:19:31;;;;;;;74.93;72.45;;;23.50;99.90;;;;;;4898406;28;20242;-82
2023/06/26 07:21:57;;;;;;;64.63;62.55;;;23.50;99.90;;;;;;4914813;29;20186;-82
2023/06/26 07:24:22;;;;;;;46.50;44.85;;;23.60;99.90;;;;;;4929975;29;20230;-82
2023/06/26 07:26:48;;;;;;;53.60;51.70;;;22.80;99.90;;;;;;4945794;28;20619;-81
2023/06/26 07:29:14;;;;;;;47.03;45.33;;;23.20;99.90;;;;;;4914134;29;20300;-81
2023/06/26 07:31:40;;;;;;;48.28;46.67;;;24.10;99.90;;;;;;4914073;28;20597;-83
2023/06/26 07:34:05;;;;;;;46.33;44.72;;;23.90;99.90;;;;;;4930373;29;20676;-82
2023/06/26 07:36:31;;;;;;;76.57;74.07;;;24.50;99.90;;;;;;4929502;29;20226;-82
2023/06/26 07:38:57;;;;;;;52.97;51.03;;;24.20;99.90;;;;;;4929620;29;20372;-82
2023/06/26 07:41:22;;;;;;;51.25;49.33;;;24.00;99.90;;;;;;4928859;29;20258;-81
2023/06/26 07:43:48;;;;;;;39.97;38.58;;;23.10;99.90;;;;;;4930859;28;20304;-82
2023/06/26 07:46:14;;;;;;;51.75;50.05;;;23.50;99.90;;;;;;4931128;29;20273;-82
2023/06/26 07:48:40;;;;;;;48.42;46.83;;;23.50;99.90;;;;;;4930854;28;20214;-82
2023/06/26 07:51:06;;;;;;;56.80;54.30;;;23.20;99.90;;;;;;4930553;28;20289;-82
2023/06/26 07:53:31;;;;;;;41.72;40.13;;;22.80;99.90;;;;;;4929322;29;20242;-81
2023/06/26 07:55:57;;;;;;;64.32;62.08;;;21.90;99.90;;;;;;4929536;29;20789;-81
2023/06/26 07:58:23;;;;;;;81.40;78.75;;;22.00;99.90;;;;;;4897922;28;20201;-82
2023/06/26 08:00:49;;;;;;;59.90;57.78;;;22.10;99.90;;;;;;4898253;29;20764;-82
2023/06/26 08:03:15;;;;;;;60.75;58.67;;;22.70;99.90;;;;;;4928892;29;20238;-82
2023/06/26 08:05:40;;;;;;;60.92;58.85;;;22.80;99.90;;;;;;4928926;29;20324;-83
2023/06/26 08:08:06;;;;;;;160.52;155.38;;;21.90;99.90;;;;;;4928940;29;20696;-81
2023/06/26 08:10:34;;;;;;;101.38;97.97;;;21.70;99.90;;;;;;4929962;28;20182;-82
2023/06/26 08:13:00;;;;;;;76.90;74.40;;;21.10;99.90;;;;;;4929484;29;20245;-84
2023/06/26 08:15:26;;;;;;;103.70;99.07;;;22.00;99.90;;;;;;4913029;29;20301;-81
2023/06/26 08:17:52;;;;;;;72.17;68.53;;;21.70;99.90;;;;;;4913313;29;20221;-81
2023/06/26 08:20:19;;;;;;;65.83;63.57;;;22.40;99.90;;;;;;4930031;28;20252;-82
2023/06/26 08:22:46;;;;;;;45.30;43.28;;;23.00;99.90;;;;;;4930226;28;20233;-81
2023/06/26 08:25:11;;;;;;;56.85;54.80;;;23.00;99.90;;;;;;4914057;29;20205;-82
2023/06/26 08:27:37;;;;;;;60.72;58.28;;;22.90;99.90;;;;;;4897400;29;20680;-83
2023/06/26 08:30:04;;;;;;;47.83;46.13;;;23.60;99.90;;;;;;4928818;29;20230;-82
2023/06/26 08:32:30;;;;;;;47.75;45.78;;;23.70;99.90;;;;;;4913235;29;20237;-82
2023/06/26 08:34:56;;;;;;;43.03;40.67;;;23.70;99.90;;;;;;4928917;29;20232;-82
2023/06/26 08:37:22;;;;;;;65.28;62.67;;;24.40;99.90;;;;;;4928684;28;20214;-82
2023/06/26 08:39:48;;;;;;;70.45;67.70;;;24.40;99.90;;;;;;4929106;29;20261;-83
2023/06/26 08:42:13;;;;;;;50.13;48.08;;;23.20;99.90;;;;;;4912720;29;20236;-82
2023/06/26 08:44:39;;;;;;;45.58;43.97;;;23.00;99.90;;;;;;4929767;28;20296;-82
2023/06/26 08:47:05;;;;;;;39.08;37.67;;;23.90;99.90;;;;;;4896716;29;20706;-82
2023/06/26 08:49:43;;;;;;;46.10;44.33;;;25.00;99.90;;;;;;4928582;28;20655;-82
2023/06/26 08:52:50;;;;;;;37.65;36.25;;;24.80;99.90;;;;;;4930508;29;20236;-82
2023/06/26 08:55:18;;;;;;;38.95;37.10;;;24.80;99.90;;;;;;4924492;29;20221;-82
2023/06/26 08:57:44;;;;;;;46.00;44.03;;;25.10;99.90;;;;;;4944910;29;20325;-83
2023/06/26 09:00:10;;;;;;;48.35;45.90;;;23.80;99.90;;;;;;4928436;28;20214;-82
2023/06/26 09:02:40;;;;;;;42.65;41.00;;;23.20;99.90;;;;;;4928474;29;20257;-82
2023/06/26 09:05:06;;;;;;;47.53;45.80;;;23.50;99.90;;;;;;4927998;29;20640;-82
2023/06/26 09:07:32;;;;;;;40.40;38.65;;;23.90;99.90;;;;;;4928432;28;20190;-82
2023/06/26 09:09:58;;;;;;;43.88;42.05;;;23.70;99.90;;;;;;4929035;29;20269;-82
2023/06/26 09:12:27;;;;;;;39.83;38.22;;;24.10;99.90;;;;;;4929642;28;20260;-82
2023/06/26 09:14:55;;;;;;;42.80;41.17;;;24.90;99.90;;;;;;4928315;29;20245;-83
2023/06/26 09:17:29;;;;;;;42.40;40.53;;;24.50;99.90;;;;;;4944176;28;20221;-83
2023/06/26 09:19:55;;;;;;;54.25;52.03;;;23.80;99.90;;;;;;4929586;28;20209;-82
2023/06/26 09:22:22;;;;;;;46.42;44.30;;;23.80;99.90;;;;;;4929404;28;20197;-82
2023/06/26 09:24:48;;;;;;;42.83;41.13;;;23.90;99.90;;;;;;4913363;29;20358;-82
2023/06/26 09:27:15;;;;;;;34.75;33.35;;;23.60;99.90;;;;;;4928046;29;20217;-82
2023/06/26 09:29:41;;;;;;;54.67;52.65;;;24.20;99.90;;;;;;4912365;29;20217;-82
2023/06/26 09:32:10;;;;;;;61.85;59.88;;;24.70;99.90;;;;;;4911981;29;20280;-82
2023/06/26 09:34:35;;;;;;;43.60;41.80;;;24.40;99.90;;;;;;4928308;28;20187;-83
2023/06/26 09:37:03;;;;;;;46.47;44.75;;;23.10;99.90;;;;;;4928307;29;20313;-82
2023/06/26 09:39:31;;;;;;;41.88;40.33;;;22.90;99.90;;;;;;4927746;29;20252;-82
2023/06/26 09:41:57;;;;;;;37.40;35.75;;;23.70;99.90;;;;;;4929404;28;20255;-82
2023/06/26 09:44:23;;;;;;;41.22;39.50;;;24.30;99.90;;;;;;4927694;29;20218;-82
2023/06/26 09:46:49;;;;;;;36.78;35.22;;;25.00;99.90;;;;;;4927994;29;20719;-82
2023/06/26 09:49:15;;;;;;;46.72;45.13;;;25.10;99.90;;;;;;4928510;29;20202;-82
2023/06/26 09:51:42;;;;;;;36.28;34.88;;;25.40;99.90;;;;;;4896647;29;20225;-82
2023/06/26 09:54:09;;;;;;;38.05;36.72;;;25.20;99.90;;;;;;4927880;29;20241;-83
2023/06/26 09:56:35;;;;;;;36.35;34.95;;;25.10;99.90;;;;;;4912421;29;20281;-83
2023/06/26 09:59:05;;;;;;;34.00;32.53;;;25.10;99.90;;;;;;4943808;28;20481;-82
2023/06/26 10:01:33;;;;;;;38.17;36.10;;;24.40;99.90;;;;;;4927953;28;20179;-82
2023/06/26 10:03:58;;;;;;;41.72;40.03;;;23.70;99.90;;;;;;4912442;29;20226;-82
2023/06/26 10:06:35;;;;;;;42.33;40.55;;;22.80;99.90;;;;;;4932329;28;20300;-82
2023/06/26 10:09:02;;;;;;;42.58;41.00;;;22.80;99.90;;;;;;4932735;28;20233;-82
2023/06/26 10:11:53;;;;;;;47.25;45.40;;;23.20;99.90;;;;;;4909180;29;20687;-82
2023/06/26 10:14:22;;;;;;;61.97;59.50;;;23.20;99.90;;;;;;4931087;28;20221;-81
2023/06/26 10:16:50;;;;;;;46.15;44.30;;;23.70;99.90;;;;;;4932369;28;20269;-82
2023/06/26 10:19:23;;;;;;;41.83;40.33;;;23.80;99.90;;;;;;4931694;29;20188;-83
2023/06/26 10:21:52;;;;;;;70.30;67.85;;;24.10;99.90;;;;;;4931761;29;20222;-82
2023/06/26 10:24:19;;;;;;;60.72;58.53;;;23.20;99.90;;;;;;4946892;28;20301;-82
2023/06/26 10:26:46;;;;;;;58.28;56.28;;;22.60;99.90;;;;;;4932216;28;20306;-82
2023/06/26 10:29:15;;;;;;;46.13;44.05;;;22.90;99.90;;;;;;4930882;29;20759;-82
2023/06/26 10:31:45;;;;;;;46.55;44.75;;;22.30;99.90;;;;;;4931999;28;20237;-82
2023/06/26 10:34:11;;;;;;;77.63;74.70;;;22.90;99.90;;;;;;4931307;29;20277;-82
2023/06/26 10:36:37;;;;;;;48.55;46.55;;;23.20;99.90;;;;;;4930106;29;20253;-81
2023/06/26 10:39:06;;;;;;;97.85;94.20;;;22.80;99.90;;;;;;4946731;28;20257;-81
2023/06/26 10:41:42;;;;;;;48.45;46.55;;;22.60;99.90;;;;;;4914730;29;20234;-82
2023/06/26 10:44:11;;;;;;;47.53;45.75;;;23.40;99.90;;;;;;4930349;29;20225;-82
2023/06/26 10:46:48;;;;;;;51.03;49.13;;;23.10;99.90;;;;;;4930333;28;20579;-82
2023/06/26 10:49:14;;;;;;;53.30;51.28;;;23.60;99.90;;;;;;4932308;29;20177;-82
2023/06/26 10:51:49;;;;;;;40.22;38.67;;;23.70;99.90;;;;;;4914363;29;20233;-82
2023/06/26 10:54:16;;;;;;;50.67;48.58;;;23.00;99.90;;;;;;4930422;29;20240;-83
2023/06/26 10:56:57;;;;;;;46.53;44.65;;;23.00;99.90;;;;;;4930243;29;20225;-82
2023/06/26 10:59:28;;;;;;;58.70;54.83;;;22.80;99.90;;;;;;4930045;29;20222;-83
2023/06/26 11:02:03;;;;;;;85.18;82.43;;;21.90;99.90;;;;;;4914664;29;20228;-81
2023/06/26 11:04:39;;;;;;;58.38;56.38;;;21.50;99.90;;;;;;4945954;28;20260;-80
2023/06/26 11:07:22;;;;;;;63.60;61.30;;;21.20;99.90;;;;;;4930622;29;20217;-82
2023/06/26 11:09:56;;;;;;;64.23;61.57;;;20.90;99.90;;;;;;4931162;29;20194;-82
2023/06/26 11:12:36;;;;;;;48.72;46.92;;;20.60;99.90;;;;;;4914527;29;20388;-81
2023/06/26 11:15:12;;;;;;;67.10;64.57;;;21.20;99.90;;;;;;4931412;28;20226;-82
2023/06/26 11:17:39;;;;;;;50.27;48.27;;;21.70;99.90;;;;;;4930607;28;20260;-82
2023/06/26 11:20:10;;;;;;;60.87;58.70;;;21.60;99.90;;;;;;4914651;29;20210;-82
2023/06/26 11:22:37;;;;;;;50.33;48.23;;;21.80;99.90;;;;;;4930820;28;20267;-81
2023/06/26 11:25:04;;;;;;;44.47;42.53;;;21.60;99.90;;;;;;4945851;29;20269;-81
2023/06/26 11:27:38;;;;;;;45.20;42.80;;;21.30;99.90;;;;;;4931114;28;20245;-81
2023/06/26 11:30:08;;;;;;;53.00;50.97;;;21.90;99.90;;;;;;4929563;29;20213;-82
2023/06/26 11:32:36;;;;;;;61.17;58.93;;;22.00;99.90;;;;;;4929784;29;20863;-81
2023/06/26 11:35:04;;;;;;;48.20;46.13;;;21.90;99.90;;;;;;4929970;29;20225;-82
2023/06/26 11:37:31;;;;;;;84.07;81.10;;;22.00;99.90;;;;;;4914408;28;20334;-81
2023/06/26 11:39:56;;;;;;;101.83;98.33;;;21.90;99.90;;;;;;4946151;29;20186;-82
2023/06/26 11:42:24;;;;;;;52.90;50.50;;;21.70;99.90;;;;;;4929488;28;20240;-82
2023/06/26 11:44:50;;;;;;;44.17;41.97;;;21.90;99.90;;;;;;4929465;29;20214;-82
2023/06/26 11:47:18;;;;;;;48.83;47.13;;;22.00;99.90;;;;;;4929544;29;20221;-82
2023/06/26 11:49:48;;;;;;;66.97;64.80;;;21.90;99.90;;;;;;4945664;28;20210;-82
2023/06/26 11:52:15;;;;;;;55.23;53.33;;;22.10;99.90;;;;;;4931406;28;20335;-82
2023/06/26 11:54:42;;;;;;;48.73;46.93;;;21.70;99.90;;;;;;4913867;29;20224;-82
2023/06/26 11:57:08;;;;;;;47.90;46.10;;;21.30;99.90;;;;;;4929292;29;20277;-82
2023/06/26 11:59:36;;;;;;;57.30;55.13;;;21.60;99.90;;;;;;4929527;29;20218;-82
2023/06/26 12:02:10;;;;;;;47.70;45.53;;;21.90;99.90;;;;;;4929030;28;20577;-82
2023/06/26 12:04:38;;;;;;;60.77;58.30;;;22.20;99.90;;;;;;4913333;28;20258;-82
2023/06/26 12:07:07;;;;;;;62.17;59.73;;;22.00;99.90;;;;;;4929608;29;20281;-82
2023/06/26 12:09:33;;;;;;;55.67;53.63;;;22.10;99.90;;;;;;4930233;28;20240;-82
2023/06/26 12:11:59;;;;;;;51.17;48.97;;;22.00;99.90;;;;;;4929232;29;20234;-82
2023/06/26 12:14:29;;;;;;;76.30;73.67;;;21.90;99.90;;;;;;4928951;29;20240;-85
2023/06/26 12:16:56;;;;;;;52.20;50.00;;;21.40;99.90;;;;;;4898123;29;20225;-85
2023/06/26 12:19:28;;;;;;;49.53;47.63;;;21.40;99.90;;;;;;4929073;28;20253;-86
2023/06/26 12:21:56;;;;;;;52.87;51.00;;;21.20;99.90;;;;;;4929539;29;20182;-85